Richardton, North Dakota
Current Conditions -  °F | °C
As of 8:56 PM on Tuesday 21 Oct 2014 (Local Time) from KDIK Reporting Station
Clear Clear  
Wind Chill: 58°   Ceiling: Unl
Heat Index: 58°   Visibility: 10mi
Dew Point: 45°   Wind: 8mph
Humidity: 62%   Direction: 190°S
Pressure: 29.62"   Gusts: NA
Location:  46.88°N, 102.32°W
Report Text: KDIK 220256Z AUTO 19007KT 10SM CLR 14/07 A2962 RMK AO2 LTG DSNT W SLP031 T01440072 51007
Loading
Personal Weather Stations






























Interactive Weather Map
Tropical Storm Tracking
New forecast layout! Learn more

10-Day Weather Forecast

Advertisements
Track Severe Weather on mobile